Terminal Aerodrome Forecast
Issued by NWS

Home | Current Version | Previous Version | Text Only | Print | Product List | Glossary On
Versions: 1 2 3 4 5 6 7 8 9 10 11 12 13 14 15 16 17 18
000
FTUS44 KLZK 280341 AAA
TAFLIT
TAF AMD
KLIT 280341Z 2804/2824 13010KT P6SM VCSH BKN025 OVC050
     FM280500 14007KT P6SM VCSH SCT008 OVC030 WS020/20035KT
     FM281000 20008KT P6SM VCSH BKN008 OVC025 WS020/20035KT
     FM281700 20008G18KT P6SM VCSH BKN025 OVC050=

USA.gov is the U.S. government's official web portal to all federal, state and local government web resources and services.